Suedburg, Pennsylvania
Current Conditions -  °F | °C
As of 7:58 AM on Friday 28 Nov 2014 (Local Time) from KMUI Reporting Station
Clear Clear  
Wind Chill: 23°   Ceiling: Unl
Heat Index: 31°   Visibility: 10mi
Dew Point: 19°   Wind: 8mph
Humidity: 60%   Direction: 280°W
Pressure: 30.22"   Gusts: NA
Location:  40.5592°N, 76.3347°W
Report Text: KMUI 281258Z AUTO 28007KT 260V330 10SM CLR M01/M07 A3022 RMK AO2 SLP242 T10061075 $
Loading
Personal Weather Stations






























Interactive Weather Map New forecast layout! Learn more

10-Day Weather Forecast

Advertisements
Track Severe Weather on mobile